sensor_id;sensor_type;location;lat;lon;timestamp;temperature;humidity
60848;DHT22;46681;47.696;9.140;2023-05-16T00:01:28;15.30;67.20
60848;DHT22;46681;47.696;9.140;2023-05-16T00:03:55;15.30;67.10
60848;DHT22;46681;47.696;9.140;2023-05-16T00:06:22;15.30;67.10
60848;DHT22;46681;47.696;9.140;2023-05-16T00:08:59;15.30;67.30
60848;DHT22;46681;47.696;9.140;2023-05-16T00:11:35;15.30;67.20
60848;DHT22;46681;47.696;9.140;2023-05-16T00:14:00;15.30;67.40
60848;DHT22;46681;47.696;9.140;2023-05-16T00:16:27;15.30;67.30
60848;DHT22;46681;47.696;9.140;2023-05-16T00:19:04;15.30;67.20
60848;DHT22;46681;47.696;9.140;2023-05-16T00:21:33;15.30;67.30
60848;DHT22;46681;47.696;9.140;2023-05-16T00:24:00;15.20;67.50
60848;DHT22;46681;47.696;9.140;2023-05-16T00:26:27;15.20;67.30
60848;DHT22;46681;47.696;9.140;2023-05-16T00:29:13;15.20;67.30
60848;DHT22;46681;47.696;9.140;2023-05-16T00:31:41;15.20;67.40
60848;DHT22;46681;47.696;9.140;2023-05-16T00:34:09;15.20;67.40
60848;DHT22;46681;47.696;9.140;2023-05-16T00:36:36;15.20;67.50
60848;DHT22;46681;47.696;9.140;2023-05-16T00:39:04;15.20;67.40
60848;DHT22;46681;47.696;9.140;2023-05-16T00:41:32;15.20;67.50
60848;DHT22;46681;47.696;9.140;2023-05-16T00:43:59;15.20;67.50
60848;DHT22;46681;47.696;9.140;2023-05-16T00:46:27;15.20;67.50
60848;DHT22;46681;47.696;9.140;2023-05-16T00:49:05;15.20;67.50
60848;DHT22;46681;47.696;9.140;2023-05-16T00:51:33;15.20;67.50
60848;DHT22;46681;47.696;9.140;2023-05-16T00:54:01;15.10;67.40
60848;DHT22;46681;47.696;9.140;2023-05-16T00:56:28;15.10;67.50
60848;DHT22;46681;47.696;9.140;2023-05-16T00:58:53;15.10;67.50
60848;DHT22;46681;47.696;9.140;2023-05-16T01:01:32;15.10;67.50
60848;DHT22;46681;47.696;9.140;2023-05-16T01:04:04;15.10;67.70
60848;DHT22;46681;47.696;9.140;2023-05-16T01:06:33;15.10;67.70
60848;DHT22;46681;47.696;9.140;2023-05-16T01:09:04;15.10;67.60
60848;DHT22;46681;47.696;9.140;2023-05-16T01:17:49;15.10;67.60
60848;DHT22;46681;47.696;9.140;2023-05-16T01:26:30;15.10;67.80
60848;DHT22;46681;47.696;9.140;2023-05-16T01:29:04;15.00;67.70
60848;DHT22;46681;47.696;9.140;2023-05-16T01:31:36;15.00;67.60
60848;DHT22;46681;47.696;9.140;2023-05-16T01:34:04;15.00;67.70
60848;DHT22;46681;47.696;9.140;2023-05-16T01:37:05;15.00;67.70
60848;DHT22;46681;47.696;9.140;2023-05-16T01:42:15;15.00;67.70
60848;DHT22;46681;47.696;9.140;2023-05-16T01:44:59;14.90;67.70
60848;DHT22;46681;47.696;9.140;2023-05-16T01:47:27;14.90;67.90
60848;DHT22;46681;47.696;9.140;2023-05-16T01:50:01;14.90;67.80
60848;DHT22;46681;47.696;9.140;2023-05-16T01:55:07;14.90;67.80
60848;DHT22;46681;47.696;9.140;2023-05-16T01:57:44;14.90;67.90
60848;DHT22;46681;47.696;9.140;2023-05-16T02:00:11;14.90;68.00
60848;DHT22;46681;47.696;9.140;2023-05-16T02:02:37;14.90;68.00
60848;DHT22;46681;47.696;9.140;2023-05-16T02:05:06;14.90;68.00
60848;DHT22;46681;47.696;9.140;2023-05-16T02:07:33;14.90;68.00
60848;DHT22;46681;47.696;9.140;2023-05-16T02:10:01;14.90;68.10
60848;DHT22;46681;47.696;9.140;2023-05-16T02:12:28;14.80;68.00
60848;DHT22;46681;47.696;9.140;2023-05-16T02:14:58;14.80;68.00
60848;DHT22;46681;47.696;9.140;2023-05-16T02:17:28;14.80;68.00
60848;DHT22;46681;47.696;9.140;2023-05-16T02:19:57;14.80;68.00
60848;DHT22;46681;47.696;9.140;2023-05-16T02:22:24;14.80;68.00
60848;DHT22;46681;47.696;9.140;2023-05-16T02:24:55;14.80;68.00
60848;DHT22;46681;47.696;9.140;2023-05-16T02:27:22;14.80;68.10
60848;DHT22;46681;47.696;9.140;2023-05-16T02:29:56;14.80;68.10
60848;DHT22;46681;47.696;9.140;2023-05-16T02:32:22;14.80;68.20
60848;DHT22;46681;47.696;9.140;2023-05-16T02:34:52;14.80;68.20
60848;DHT22;46681;47.696;9.140;2023-05-16T02:37:19;14.80;68.30
60848;DHT22;46681;47.696;9.140;2023-05-16T02:39:46;14.80;68.20
60848;DHT22;46681;47.696;9.140;2023-05-16T02:42:13;14.70;68.20
60848;DHT22;46681;47.696;9.140;2023-05-16T02:44:44;14.70;68.30
60848;DHT22;46681;47.696;9.140;2023-05-16T02:47:13;14.70;68.30
60848;DHT22;46681;47.696;9.140;2023-05-16T02:49:45;14.70;68.20
60848;DHT22;46681;47.696;9.140;2023-05-16T02:52:12;14.70;68.20
60848;DHT22;46681;47.696;9.140;2023-05-16T02:54:37;14.70;68.20
60848;DHT22;46681;47.696;9.140;2023-05-16T02:57:07;14.70;68.30
60848;DHT22;46681;47.696;9.140;2023-05-16T02:59:34;14.70;68.30
60848;DHT22;46681;47.696;9.140;2023-05-16T03:02:01;14.70;68.30
60848;DHT22;46681;47.696;9.140;2023-05-16T03:04:28;14.70;68.40
60848;DHT22;46681;47.696;9.140;2023-05-16T03:06:54;14.60;68.60
60848;DHT22;46681;47.696;9.140;2023-05-16T03:12:12;14.60;68.30
60848;DHT22;46681;47.696;9.140;2023-05-16T03:14:46;14.60;68.40
60848;DHT22;46681;47.696;9.140;2023-05-16T03:17:16;14.60;68.60
60848;DHT22;46681;47.696;9.140;2023-05-16T03:19:49;14.50;68.40
60848;DHT22;46681;47.696;9.140;2023-05-16T03:22:20;14.50;68.50
60848;DHT22;46681;47.696;9.140;2023-05-16T03:24:49;14.50;68.50
60848;DHT22;46681;47.696;9.140;2023-05-16T03:27:25;14.50;68.50
60848;DHT22;46681;47.696;9.140;2023-05-16T03:29:55;14.50;68.60
60848;DHT22;46681;47.696;9.140;2023-05-16T03:32:28;14.50;68.70
60848;DHT22;46681;47.696;9.140;2023-05-16T03:34:57;14.50;68.60
60848;DHT22;46681;47.696;9.140;2023-05-16T03:37:30;14.50;68.70
60848;DHT22;46681;47.696;9.140;2023-05-16T03:39:56;14.40;68.60
60848;DHT22;46681;47.696;9.140;2023-05-16T03:42:41;14.50;68.80
60848;DHT22;46681;47.696;9.140;2023-05-16T03:45:12;14.40;68.90
60848;DHT22;46681;47.696;9.140;2023-05-16T03:48:00;14.40;69.00
60848;DHT22;46681;47.696;9.140;2023-05-16T03:50:28;14.40;68.90
60848;DHT22;46681;47.696;9.140;2023-05-16T03:52:56;14.40;68.90
60848;DHT22;46681;47.696;9.140;2023-05-16T03:55:40;14.40;69.00
60848;DHT22;46681;47.696;9.140;2023-05-16T03:58:27;14.40;68.90
60848;DHT22;46681;47.696;9.140;2023-05-16T04:00:54;14.40;69.00
60848;DHT22;46681;47.696;9.140;2023-05-16T04:03:23;14.40;69.00
60848;DHT22;46681;47.696;9.140;2023-05-16T04:11:33;14.40;69.10
60848;DHT22;46681;47.696;9.140;2023-05-16T04:14:08;14.40;69.60
60848;DHT22;46681;47.696;9.140;2023-05-16T04:16:37;14.30;69.10
60848;DHT22;46681;47.696;9.140;2023-05-16T04:19:02;14.30;69.10
60848;DHT22;46681;47.696;9.140;2023-05-16T04:21:31;14.30;69.00
60848;DHT22;46681;47.696;9.140;2023-05-16T04:24:06;14.30;69.10
60848;DHT22;46681;47.696;9.140;2023-05-16T04:26:38;14.30;69.10
60848;DHT22;46681;47.696;9.140;2023-05-16T04:29:10;14.30;68.90
60848;DHT22;46681;47.696;9.140;2023-05-16T04:31:38;14.30;69.00
60848;DHT22;46681;47.696;9.140;2023-05-16T04:34:10;14.20;69.10
60848;DHT22;46681;47.696;9.140;2023-05-16T04:36:38;14.20;68.90
60848;DHT22;46681;47.696;9.140;2023-05-16T04:39:35;14.20;69.00
60848;DHT22;46681;47.696;9.140;2023-05-16T04:42:10;14.20;69.00
60848;DHT22;46681;47.696;9.140;2023-05-16T04:44:45;14.20;70.20
60848;DHT22;46681;47.696;9.140;2023-05-16T04:47:14;14.30;71.10
60848;DHT22;46681;47.696;9.140;2023-05-16T04:49:50;14.40;71.80
60848;DHT22;46681;47.696;9.140;2023-05-16T04:52:24;14.40;71.70
60848;DHT22;46681;47.696;9.140;2023-05-16T04:54:59;14.50;71.30
60848;DHT22;46681;47.696;9.140;2023-05-16T04:57:47;14.40;70.50
60848;DHT22;46681;47.696;9.140;2023-05-16T05:00:18;14.40;70.20
60848;DHT22;46681;47.696;9.140;2023-05-16T05:03:19;14.40;69.60
60848;DHT22;46681;47.696;9.140;2023-05-16T05:05:48;14.40;70.80
60848;DHT22;46681;47.696;9.140;2023-05-16T05:08:43;14.40;70.00
60848;DHT22;46681;47.696;9.140;2023-05-16T05:11:21;14.50;71.00
60848;DHT22;46681;47.696;9.140;2023-05-16T05:14:00;14.50;70.20
60848;DHT22;46681;47.696;9.140;2023-05-16T05:16:29;14.40;69.90
60848;DHT22;46681;47.696;9.140;2023-05-16T05:19:22;14.50;69.80
60848;DHT22;46681;47.696;9.140;2023-05-16T05:22:19;14.50;69.70
60848;DHT22;46681;47.696;9.140;2023-05-16T05:25:04;14.40;69.60
60848;DHT22;46681;47.696;9.140;2023-05-16T05:27:34;14.50;69.40
60848;DHT22;46681;47.696;9.140;2023-05-16T05:30:16;14.50;69.30
60848;DHT22;46681;47.696;9.140;2023-05-16T05:32:45;14.50;70.70
60848;DHT22;46681;47.696;9.140;2023-05-16T05:35:23;14.50;71.10
60848;DHT22;46681;47.696;9.140;2023-05-16T05:37:58;14.60;71.80
60848;DHT22;46681;47.696;9.140;2023-05-16T05:40:29;14.70;71.70
60848;DHT22;46681;47.696;9.140;2023-05-16T05:43:33;14.70;70.40
60848;DHT22;46681;47.696;9.140;2023-05-16T05:46:34;14.70;69.80
60848;DHT22;46681;47.696;9.140;2023-05-16T05:49:08;14.80;69.70
60848;DHT22;46681;47.696;9.140;2023-05-16T05:51:45;14.70;69.40
60848;DHT22;46681;47.696;9.140;2023-05-16T05:54:16;14.70;69.20
60848;DHT22;46681;47.696;9.140;2023-05-16T05:56:47;14.80;69.10
60848;DHT22;46681;47.696;9.140;2023-05-16T05:59:14;14.80;69.20
60848;DHT22;46681;47.696;9.140;2023-05-16T06:01:41;14.90;70.70
60848;DHT22;46681;47.696;9.140;2023-05-16T06:04:19;14.90;70.00
60848;DHT22;46681;47.696;9.140;2023-05-16T06:06:48;14.90;69.20
60848;DHT22;46681;47.696;9.140;2023-05-16T06:09:14;15.00;69.10
60848;DHT22;46681;47.696;9.140;2023-05-16T06:11:44;15.00;69.00
60848;DHT22;46681;47.696;9.140;2023-05-16T06:14:11;15.00;68.80
60848;DHT22;46681;47.696;9.140;2023-05-16T06:16:46;15.00;68.70
60848;DHT22;46681;47.696;9.140;2023-05-16T06:19:17;15.00;68.50
60848;DHT22;46681;47.696;9.140;2023-05-16T06:21:49;15.10;68.40
60848;DHT22;46681;47.696;9.140;2023-05-16T06:24:16;15.10;68.40
60848;DHT22;46681;47.696;9.140;2023-05-16T06:26:48;15.10;68.20
60848;DHT22;46681;47.696;9.140;2023-05-16T06:29:23;15.20;68.10
60848;DHT22;46681;47.696;9.140;2023-05-16T06:32:02;15.20;68.10
60848;DHT22;46681;47.696;9.140;2023-05-16T06:34:38;15.20;67.90
60848;DHT22;46681;47.696;9.140;2023-05-16T06:37:08;15.30;67.70
60848;DHT22;46681;47.696;9.140;2023-05-16T06:39:41;15.30;67.50
60848;DHT22;46681;47.696;9.140;2023-05-16T06:42:27;15.40;67.30
60848;DHT22;46681;47.696;9.140;2023-05-16T06:44:56;15.50;67.00
60848;DHT22;46681;47.696;9.140;2023-05-16T06:47:23;15.50;66.90
60848;DHT22;46681;47.696;9.140;2023-05-16T06:49:56;15.60;66.70
60848;DHT22;46681;47.696;9.140;2023-05-16T06:52:28;15.60;66.30
60848;DHT22;46681;47.696;9.140;2023-05-16T06:54:58;15.80;66.10
60848;DHT22;46681;47.696;9.140;2023-05-16T06:57:43;15.80;65.80
60848;DHT22;46681;47.696;9.140;2023-05-16T07:00:17;15.90;65.40
60848;DHT22;46681;47.696;9.140;2023-05-16T07:02:53;16.00;65.30
60848;DHT22;46681;47.696;9.140;2023-05-16T07:05:28;16.10;64.90
60848;DHT22;46681;47.696;9.140;2023-05-16T07:08:03;16.10;64.70
60848;DHT22;46681;47.696;9.140;2023-05-16T07:10:34;16.20;64.70
60848;DHT22;46681;47.696;9.140;2023-05-16T07:13:10;16.30;64.20
60848;DHT22;46681;47.696;9.140;2023-05-16T07:15:50;16.40;64.00
60848;DHT22;46681;47.696;9.140;2023-05-16T07:18:22;16.50;64.10
60848;DHT22;46681;47.696;9.140;2023-05-16T07:20:54;16.60;63.30
60848;DHT22;46681;47.696;9.140;2023-05-16T07:23:29;16.70;63.00
60848;DHT22;46681;47.696;9.140;2023-05-16T07:26:00;16.80;62.80
60848;DHT22;46681;47.696;9.140;2023-05-16T07:28:31;16.90;62.70
60848;DHT22;46681;47.696;9.140;2023-05-16T07:31:05;17.00;62.40
60848;DHT22;46681;47.696;9.140;2023-05-16T07:33:43;17.10;62.10
60848;DHT22;46681;47.696;9.140;2023-05-16T07:36:20;17.20;61.70
60848;DHT22;46681;47.696;9.140;2023-05-16T07:39:03;17.20;61.70
60848;DHT22;46681;47.696;9.140;2023-05-16T07:41:36;17.30;61.50
60848;DHT22;46681;47.696;9.140;2023-05-16T07:44:07;17.40;61.20
60848;DHT22;46681;47.696;9.140;2023-05-16T07:46:52;17.50;61.00
60848;DHT22;46681;47.696;9.140;2023-05-16T07:49:19;17.60;60.30
60848;DHT22;46681;47.696;9.140;2023-05-16T07:51:48;17.70;60.20
60848;DHT22;46681;47.696;9.140;2023-05-16T07:54:22;17.90;59.80
60848;DHT22;46681;47.696;9.140;2023-05-16T07:56:59;18.00;59.60
60848;DHT22;46681;47.696;9.140;2023-05-16T07:59:37;18.20;59.40
60848;DHT22;46681;47.696;9.140;2023-05-16T08:02:05;18.30;59.40
60848;DHT22;46681;47.696;9.140;2023-05-16T08:04:36;18.30;59.00
60848;DHT22;46681;47.696;9.140;2023-05-16T08:07:03;18.50;59.10
60848;DHT22;46681;47.696;9.140;2023-05-16T08:09:35;18.50;58.60
60848;DHT22;46681;47.696;9.140;2023-05-16T08:12:12;18.60;58.20
60848;DHT22;46681;47.696;9.140;2023-05-16T08:14:53;18.70;58.20
60848;DHT22;46681;47.696;9.140;2023-05-16T08:17:38;18.70;58.00
60848;DHT22;46681;47.696;9.140;2023-05-16T08:20:14;18.70;57.80
60848;DHT22;46681;47.696;9.140;2023-05-16T08:25:54;18.80;57.80
60848;DHT22;46681;47.696;9.140;2023-05-16T08:28:31;18.90;57.70
60848;DHT22;46681;47.696;9.140;2023-05-16T08:31:17;18.90;57.80
60848;DHT22;46681;47.696;9.140;2023-05-16T08:33:54;18.90;57.60
60848;DHT22;46681;47.696;9.140;2023-05-16T08:43:09;18.90;57.40
60848;DHT22;46681;47.696;9.140;2023-05-16T08:46:28;18.90;57.40
60848;DHT22;46681;47.696;9.140;2023-05-16T08:48:57;18.90;56.90
60848;DHT22;46681;47.696;9.140;2023-05-16T08:51:32;18.90;56.80
60848;DHT22;46681;47.696;9.140;2023-05-16T08:54:05;18.90;56.00
60848;DHT22;46681;47.696;9.140;2023-05-16T08:56:47;18.90;55.90
60848;DHT22;46681;47.696;9.140;2023-05-16T08:59:26;18.90;55.60
60848;DHT22;46681;47.696;9.140;2023-05-16T09:02:27;18.80;55.20
60848;DHT22;46681;47.696;9.140;2023-05-16T09:05:00;18.80;55.40
60848;DHT22;46681;47.696;9.140;2023-05-16T09:07:55;18.80;56.00
60848;DHT22;46681;47.696;9.140;2023-05-16T09:10:38;18.70;56.80
60848;DHT22;46681;47.696;9.140;2023-05-16T09:13:12;18.60;57.30
60848;DHT22;46681;47.696;9.140;2023-05-16T09:19:18;18.60;57.50
60848;DHT22;46681;47.696;9.140;2023-05-16T09:21:50;18.50;57.80
60848;DHT22;46681;47.696;9.140;2023-05-16T09:24:48;18.50;56.80
60848;DHT22;46681;47.696;9.140;2023-05-16T09:27:46;18.50;56.40
60848;DHT22;46681;47.696;9.140;2023-05-16T09:30:48;18.60;55.90
60848;DHT22;46681;47.696;9.140;2023-05-16T09:33:27;18.60;55.80
60848;DHT22;46681;47.696;9.140;2023-05-16T09:36:06;18.60;55.70
60848;DHT22;46681;47.696;9.140;2023-05-16T09:38:59;18.60;55.80
60848;DHT22;46681;47.696;9.140;2023-05-16T09:41:39;18.70;55.80
60848;DHT22;46681;47.696;9.140;2023-05-16T09:44:30;18.60;55.70
60848;DHT22;46681;47.696;9.140;2023-05-16T09:47:09;18.60;55.50
60848;DHT22;46681;47.696;9.140;2023-05-16T09:49:51;18.50;56.40
60848;DHT22;46681;47.696;9.140;2023-05-16T09:52:21;18.50;57.00
60848;DHT22;46681;47.696;9.140;2023-05-16T09:54:57;18.40;57.80
60848;DHT22;46681;47.696;9.140;2023-05-16T09:58:01;18.40;58.20
60848;DHT22;46681;47.696;9.140;2023-05-16T10:03:29;18.30;58.40
60848;DHT22;46681;47.696;9.140;2023-05-16T10:06:15;18.30;58.50
60848;DHT22;46681;47.696;9.140;2023-05-16T10:12:00;18.20;58.70
60848;DHT22;46681;47.696;9.140;2023-05-16T10:14:57;18.10;58.80
60848;DHT22;46681;47.696;9.140;2023-05-16T10:17:48;18.10;59.00
60848;DHT22;46681;47.696;9.140;2023-05-16T10:20:16;18.10;59.20
60848;DHT22;46681;47.696;9.140;2023-05-16T10:22:43;18.00;59.10
60848;DHT22;46681;47.696;9.140;2023-05-16T10:28:28;17.90;59.50
60848;DHT22;46681;47.696;9.140;2023-05-16T10:31:34;17.90;59.80
60848;DHT22;46681;47.696;9.140;2023-05-16T10:34:25;17.80;60.00
60848;DHT22;46681;47.696;9.140;2023-05-16T10:37:31;17.80;60.20
60848;DHT22;46681;47.696;9.140;2023-05-16T10:40:20;17.70;60.40
60848;DHT22;46681;47.696;9.140;2023-05-16T10:43:03;17.70;60.60
60848;DHT22;46681;47.696;9.140;2023-05-16T10:45:43;17.70;60.80
60848;DHT22;46681;47.696;9.140;2023-05-16T10:48:15;17.60;60.80
60848;DHT22;46681;47.696;9.140;2023-05-16T10:50:48;17.60;60.80
60848;DHT22;46681;47.696;9.140;2023-05-16T10:56:36;17.60;61.20
60848;DHT22;46681;47.696;9.140;2023-05-16T10:59:30;17.60;61.30
60848;DHT22;46681;47.696;9.140;2023-05-16T11:05:13;17.50;61.00
60848;DHT22;46681;47.696;9.140;2023-05-16T11:08:02;17.50;61.20
60848;DHT22;46681;47.696;9.140;2023-05-16T11:10:37;17.50;61.20
60848;DHT22;46681;47.696;9.140;2023-05-16T11:13:11;17.50;61.20
60848;DHT22;46681;47.696;9.140;2023-05-16T11:28:11;17.40;61.60
60848;DHT22;46681;47.696;9.140;2023-05-16T11:31:08;17.50;61.60
60848;DHT22;46681;47.696;9.140;2023-05-16T11:33:50;17.50;61.70
60848;DHT22;46681;47.696;9.140;2023-05-16T11:36:29;17.50;61.70
60848;DHT22;46681;47.696;9.140;2023-05-16T11:39:17;17.50;61.80
60848;DHT22;46681;47.696;9.140;2023-05-16T11:42:23;17.50;61.80
60848;DHT22;46681;47.696;9.140;2023-05-16T11:45:19;17.50;61.90
60848;DHT22;46681;47.696;9.140;2023-05-16T11:47:52;17.50;61.80
60848;DHT22;46681;47.696;9.140;2023-05-16T11:50:41;17.50;61.80
60848;DHT22;46681;47.696;9.140;2023-05-16T11:53:10;17.50;61.80
60848;DHT22;46681;47.696;9.140;2023-05-16T11:55:44;17.50;61.60
60848;DHT22;46681;47.696;9.140;2023-05-16T11:58:11;17.50;61.60
60848;DHT22;46681;47.696;9.140;2023-05-16T12:00:49;17.50;61.50
60848;DHT22;46681;47.696;9.140;2023-05-16T12:03:52;17.50;61.50
60848;DHT22;46681;47.696;9.140;2023-05-16T12:06:23;17.50;61.60
60848;DHT22;46681;47.696;9.140;2023-05-16T12:09:00;17.50;61.60
60848;DHT22;46681;47.696;9.140;2023-05-16T12:12:04;17.50;61.20
60848;DHT22;46681;47.696;9.140;2023-05-16T12:15:07;17.50;60.90
60848;DHT22;46681;47.696;9.140;2023-05-16T12:17:41;17.60;60.80
60848;DHT22;46681;47.696;9.140;2023-05-16T12:20:36;17.60;61.00
60848;DHT22;46681;47.696;9.140;2023-05-16T12:23:11;17.60;60.90
60848;DHT22;46681;47.696;9.140;2023-05-16T12:25:39;17.60;60.80
60848;DHT22;46681;47.696;9.140;2023-05-16T12:28:20;17.60;61.00
60848;DHT22;46681;47.696;9.140;2023-05-16T12:30:49;17.60;60.90
60848;DHT22;46681;47.696;9.140;2023-05-16T12:33:29;17.60;61.00
60848;DHT22;46681;47.696;9.140;2023-05-16T12:36:22;17.60;60.90
60848;DHT22;46681;47.696;9.140;2023-05-16T12:39:14;17.50;60.60
60848;DHT22;46681;47.696;9.140;2023-05-16T12:41:57;17.60;60.80
60848;DHT22;46681;47.696;9.140;2023-05-16T12:44:32;17.60;60.80
60848;DHT22;46681;47.696;9.140;2023-05-16T12:47:03;17.60;60.70
60848;DHT22;46681;47.696;9.140;2023-05-16T12:49:35;17.60;60.90
60848;DHT22;46681;47.696;9.140;2023-05-16T12:52:27;17.60;60.60
60848;DHT22;46681;47.696;9.140;2023-05-16T12:55:09;17.60;60.30
60848;DHT22;46681;47.696;9.140;2023-05-16T12:57:49;17.70;60.20
60848;DHT22;46681;47.696;9.140;2023-05-16T13:00:38;17.70;60.30
60848;DHT22;46681;47.696;9.140;2023-05-16T13:03:26;17.70;60.00
60848;DHT22;46681;47.696;9.140;2023-05-16T13:06:00;17.70;60.10
60848;DHT22;46681;47.696;9.140;2023-05-16T13:08:51;17.70;60.10
60848;DHT22;46681;47.696;9.140;2023-05-16T13:11:53;17.70;60.00
60848;DHT22;46681;47.696;9.140;2023-05-16T13:14:35;17.70;60.00
60848;DHT22;46681;47.696;9.140;2023-05-16T13:17:01;17.80;59.80
60848;DHT22;46681;47.696;9.140;2023-05-16T13:19:33;17.80;59.70
60848;DHT22;46681;47.696;9.140;2023-05-16T13:22:08;17.80;59.60
60848;DHT22;46681;47.696;9.140;2023-05-16T13:24:46;17.80;59.90
60848;DHT22;46681;47.696;9.140;2023-05-16T13:27:25;17.80;59.90
60848;DHT22;46681;47.696;9.140;2023-05-16T13:29:53;17.80;59.80
60848;DHT22;46681;47.696;9.140;2023-05-16T13:32:43;17.80;59.90
60848;DHT22;46681;47.696;9.140;2023-05-16T13:35:10;17.80;59.90
60848;DHT22;46681;47.696;9.140;2023-05-16T13:37:57;17.80;59.80
60848;DHT22;46681;47.696;9.140;2023-05-16T13:40:54;17.80;59.90
60848;DHT22;46681;47.696;9.140;2023-05-16T13:43:29;17.80;60.10
60848;DHT22;46681;47.696;9.140;2023-05-16T13:46:27;17.70;60.20
60848;DHT22;46681;47.696;9.140;2023-05-16T13:48:57;17.70;60.60
60848;DHT22;46681;47.696;9.140;2023-05-16T13:51:26;17.70;60.60
60848;DHT22;46681;47.696;9.140;2023-05-16T13:53:56;17.70;60.80
60848;DHT22;46681;47.696;9.140;2023-05-16T13:56:27;17.60;60.90
60848;DHT22;46681;47.696;9.140;2023-05-16T13:59:18;17.60;61.10
60848;DHT22;46681;47.696;9.140;2023-05-16T14:01:57;17.50;61.00
60848;DHT22;46681;47.696;9.140;2023-05-16T14:05:08;17.50;61.10
60848;DHT22;46681;47.696;9.140;2023-05-16T14:07:34;17.50;61.10
60848;DHT22;46681;47.696;9.140;2023-05-16T14:13:21;17.40;61.40
60848;DHT22;46681;47.696;9.140;2023-05-16T14:19:18;17.30;61.60
60848;DHT22;46681;47.696;9.140;2023-05-16T14:21:47;17.30;61.70
60848;DHT22;46681;47.696;9.140;2023-05-16T14:24:17;17.30;61.70
60848;DHT22;46681;47.696;9.140;2023-05-16T14:26:52;17.20;62.00
60848;DHT22;46681;47.696;9.140;2023-05-16T14:29:27;17.20;62.30
60848;DHT22;46681;47.696;9.140;2023-05-16T14:31:53;17.20;62.20
60848;DHT22;46681;47.696;9.140;2023-05-16T14:34:40;17.20;62.10
60848;DHT22;46681;47.696;9.140;2023-05-16T14:40:35;17.20;61.90
60848;DHT22;46681;47.696;9.140;2023-05-16T14:43:26;17.10;62.00
60848;DHT22;46681;47.696;9.140;2023-05-16T14:46:15;17.10;62.00
60848;DHT22;46681;47.696;9.140;2023-05-16T14:49:05;17.10;62.00
60848;DHT22;46681;47.696;9.140;2023-05-16T14:51:57;17.10;61.90
60848;DHT22;46681;47.696;9.140;2023-05-16T14:57:39;17.00;61.60
60848;DHT22;46681;47.696;9.140;2023-05-16T15:00:25;17.00;61.70
60848;DHT22;46681;47.696;9.140;2023-05-16T15:03:28;17.00;61.80
60848;DHT22;46681;47.696;9.140;2023-05-16T15:06:27;16.90;61.60
60848;DHT22;46681;47.696;9.140;2023-05-16T15:09:23;17.00;61.60
60848;DHT22;46681;47.696;9.140;2023-05-16T15:11:59;16.90;61.50
60848;DHT22;46681;47.696;9.140;2023-05-16T15:14:26;16.90;61.60
60848;DHT22;46681;47.696;9.140;2023-05-16T15:17:00;16.90;61.70
60848;DHT22;46681;47.696;9.140;2023-05-16T15:19:34;16.90;61.80
60848;DHT22;46681;47.696;9.140;2023-05-16T15:22:08;16.90;61.80
60848;DHT22;46681;47.696;9.140;2023-05-16T15:24:44;16.80;62.00
60848;DHT22;46681;47.696;9.140;2023-05-16T15:27:18;16.80;63.10
60848;DHT22;46681;47.696;9.140;2023-05-16T15:30:18;16.80;63.00
60848;DHT22;46681;47.696;9.140;2023-05-16T15:32:49;16.80;62.50
60848;DHT22;46681;47.696;9.140;2023-05-16T15:35:16;16.70;62.20
60848;DHT22;46681;47.696;9.140;2023-05-16T15:37:44;16.70;62.30
60848;DHT22;46681;47.696;9.140;2023-05-16T15:40:15;16.70;62.30
60848;DHT22;46681;47.696;9.140;2023-05-16T15:43:05;16.70;62.30
60848;DHT22;46681;47.696;9.140;2023-05-16T15:45:46;16.70;62.10
60848;DHT22;46681;47.696;9.140;2023-05-16T15:48:46;16.70;62.20
60848;DHT22;46681;47.696;9.140;2023-05-16T15:51:52;16.60;62.20
60848;DHT22;46681;47.696;9.140;2023-05-16T15:54:19;16.60;62.10
60848;DHT22;46681;47.696;9.140;2023-05-16T15:56:45;16.60;62.10
60848;DHT22;46681;47.696;9.140;2023-05-16T15:59:15;16.60;62.00
60848;DHT22;46681;47.696;9.140;2023-05-16T16:01:45;16.60;62.10
60848;DHT22;46681;47.696;9.140;2023-05-16T16:04:45;16.50;62.10
60848;DHT22;46681;47.696;9.140;2023-05-16T16:07:46;16.50;61.90
60848;DHT22;46681;47.696;9.140;2023-05-16T16:10:43;16.50;62.00
60848;DHT22;46681;47.696;9.140;2023-05-16T16:13:46;16.50;62.00
60848;DHT22;46681;47.696;9.140;2023-05-16T16:16:31;16.50;62.20
60848;DHT22;46681;47.696;9.140;2023-05-16T16:19:27;16.50;63.90
60848;DHT22;46681;47.696;9.140;2023-05-16T16:22:11;16.50;63.80
60848;DHT22;46681;47.696;9.140;2023-05-16T16:24:43;16.40;62.90
60848;DHT22;46681;47.696;9.140;2023-05-16T16:27:30;16.40;62.40
60848;DHT22;46681;47.696;9.140;2023-05-16T16:29:57;16.40;62.70
60848;DHT22;46681;47.696;9.140;2023-05-16T16:32:36;16.40;62.70
60848;DHT22;46681;47.696;9.140;2023-05-16T16:35:02;16.40;62.70
60848;DHT22;46681;47.696;9.140;2023-05-16T16:37:32;16.30;62.70
60848;DHT22;46681;47.696;9.140;2023-05-16T16:40:10;16.30;62.70
60848;DHT22;46681;47.696;9.140;2023-05-16T16:42:42;16.30;62.90
60848;DHT22;46681;47.696;9.140;2023-05-16T16:45:16;16.30;63.00
60848;DHT22;46681;47.696;9.140;2023-05-16T16:47:51;16.30;63.00
60848;DHT22;46681;47.696;9.140;2023-05-16T16:50:24;16.20;63.00
60848;DHT22;46681;47.696;9.140;2023-05-16T16:52:58;16.20;62.80
60848;DHT22;46681;47.696;9.140;2023-05-16T16:55:25;16.20;62.70
60848;DHT22;46681;47.696;9.140;2023-05-16T16:58:00;16.20;62.80
60848;DHT22;46681;47.696;9.140;2023-05-16T17:00:38;16.20;66.10
60848;DHT22;46681;47.696;9.140;2023-05-16T17:03:22;16.30;68.10
60848;DHT22;46681;47.696;9.140;2023-05-16T17:06:00;16.30;67.10
60848;DHT22;46681;47.696;9.140;2023-05-16T17:08:36;16.20;65.40
60848;DHT22;46681;47.696;9.140;2023-05-16T17:11:04;16.20;64.90
60848;DHT22;46681;47.696;9.140;2023-05-16T17:13:41;16.10;64.50
60848;DHT22;46681;47.696;9.140;2023-05-16T17:16:15;16.10;67.40
60848;DHT22;46681;47.696;9.140;2023-05-16T17:19:06;16.20;66.70
60848;DHT22;46681;47.696;9.140;2023-05-16T17:21:46;16.10;65.40
60848;DHT22;46681;47.696;9.140;2023-05-16T17:24:19;16.10;65.70
60848;DHT22;46681;47.696;9.140;2023-05-16T17:26:45;16.00;65.10
60848;DHT22;46681;47.696;9.140;2023-05-16T17:29:31;16.00;64.80
60848;DHT22;46681;47.696;9.140;2023-05-16T17:32:12;15.90;64.60
60848;DHT22;46681;47.696;9.140;2023-05-16T17:34:47;15.90;64.50
60848;DHT22;46681;47.696;9.140;2023-05-16T17:37:21;15.80;64.40
60848;DHT22;46681;47.696;9.140;2023-05-16T17:40:09;15.80;64.50
60848;DHT22;46681;47.696;9.140;2023-05-16T17:42:57;15.80;64.40
60848;DHT22;46681;47.696;9.140;2023-05-16T17:45:26;15.70;64.30
60848;DHT22;46681;47.696;9.140;2023-05-16T17:48:00;15.70;64.30
60848;DHT22;46681;47.696;9.140;2023-05-16T17:50:31;15.70;64.60
60848;DHT22;46681;47.696;9.140;2023-05-16T17:52:57;15.60;64.30